createdAt,value
2024-01-11T00:00:26.632Z,-9.05
2024-01-11T00:00:54.689Z,-9.05
2024-01-11T00:01:25.865Z,-8.94
2024-01-11T00:01:58.499Z,-8.94
2024-01-11T00:02:29.770Z,-9.05
2024-01-11T00:03:02.836Z,-9.05
2024-01-11T00:03:33.503Z,-9.05
2024-01-11T00:04:06.454Z,-9.05
2024-01-11T00:04:37.760Z,-9.05
2024-01-11T00:05:11.028Z,-9.05
2024-01-11T00:05:41.709Z,-9.05
2024-01-11T00:05:58.321Z,-9.05
2024-01-11T00:06:29.666Z,-9.05
2024-01-11T00:07:01.847Z,-9.05
2024-01-11T00:07:33.668Z,-9.05
2024-01-11T00:08:05.584Z,-9.05
2024-01-11T00:08:38.605Z,-9.05
2024-01-11T00:09:09.595Z,-9.05
2024-01-11T00:09:42.969Z,-9.05
2024-01-11T00:10:13.953Z,-8.89
2024-01-11T00:10:46.329Z,-8.89
2024-01-11T00:11:18.788Z,-8.89
2024-01-11T00:11:50.593Z,-8.89
2024-01-11T00:12:21.616Z,-8.75
2024-01-11T00:12:54.600Z,-8.75
2024-01-11T00:13:25.943Z,-8.75
2024-01-11T00:13:58.675Z,-8.75
2024-01-11T00:14:29.787Z,-8.89
2024-01-11T00:15:04.558Z,-8.89
2024-01-11T00:15:33.759Z,-8.89
2024-01-11T00:16:06.578Z,-8.89
2024-01-11T00:16:37.713Z,-8.89
2024-01-11T00:17:10.737Z,-8.89
2024-01-11T00:17:41.793Z,-8.89
2024-01-11T00:17:57.970Z,-8.89
2024-01-11T00:18:29.735Z,-8.89
2024-01-11T00:19:01.934Z,-8.89
2024-01-11T00:19:33.669Z,-8.89
2024-01-11T00:20:05.836Z,-8.89
2024-01-11T00:20:38.878Z,-8.89
2024-01-11T00:21:09.711Z,-8.89
2024-01-11T00:21:42.677Z,-8.89
2024-01-11T00:22:13.638Z,-8.89
2024-01-11T00:22:46.594Z,-8.89
2024-01-11T00:23:17.875Z,-8.89
2024-01-11T00:23:50.386Z,-8.89
2024-01-11T00:24:21.659Z,-8.89
2024-01-11T00:24:54.628Z,-8.89
2024-01-11T00:25:26.002Z,-8.89
2024-01-11T00:25:58.457Z,-8.89
2024-01-11T00:26:29.705Z,-8.89
2024-01-11T00:27:02.531Z,-8.89
2024-01-11T00:27:33.569Z,-8.89
2024-01-11T00:28:06.673Z,-8.89
2024-01-11T00:28:37.755Z,-8.89
2024-01-11T00:29:10.312Z,-8.89
2024-01-11T00:29:41.801Z,-8.89
2024-01-11T00:30:16.078Z,-8.89
2024-01-11T00:30:45.897Z,-8.89
2024-01-11T00:31:18.373Z,-9.01
2024-01-11T00:31:49.669Z,-9.01
2024-01-11T00:32:22.781Z,-9.01
2024-01-11T00:32:53.770Z,-9.01
2024-01-11T00:33:29.253Z,-9.01
2024-01-11T00:33:57.867Z,-9.01
2024-01-11T00:34:30.623Z,-9.01
2024-01-11T00:35:02.321Z,-9.01
2024-01-11T00:35:34.543Z,-9.01
2024-01-11T00:36:05.745Z,-9.01
2024-01-11T00:36:38.634Z,-9.01
2024-01-11T00:37:09.673Z,-9.01
2024-01-11T00:37:42.537Z,-9.01
2024-01-11T00:38:13.799Z,-9.01
2024-01-11T00:38:46.360Z,-9.01
2024-01-11T00:39:17.725Z,-9.01
2024-01-11T00:39:50.643Z,-9.01
2024-01-11T00:40:21.964Z,-9.01
2024-01-11T00:40:54.442Z,-9.01
2024-01-11T00:41:25.766Z,-9.01
2024-01-11T00:41:58.611Z,-9.01
2024-01-11T00:42:29.604Z,-9.01
2024-01-11T00:43:04.360Z,-9.01
2024-01-11T00:43:33.708Z,-9.01
2024-01-11T00:44:06.383Z,-9.01
2024-01-11T00:44:37.689Z,-9.01
2024-01-11T00:45:11.997Z,-9.01
2024-01-11T00:45:41.642Z,-9.01
2024-01-11T00:46:19.088Z,-9.01
2024-01-11T00:46:45.653Z,-9.01
2024-01-11T00:47:17.816Z,-8.89
2024-01-11T00:47:49.702Z,-8.89
2024-01-11T00:48:21.744Z,-8.89
2024-01-11T00:48:56.756Z,-8.89
2024-01-11T00:49:25.935Z,-8.89
2024-01-11T00:49:58.536Z,-8.89
2024-01-11T00:50:30.065Z,-8.89
2024-01-11T00:51:02.469Z,-8.89
2024-01-11T00:51:33.614Z,-8.89
2024-01-11T00:52:07.311Z,-8.89
2024-01-11T00:52:37.715Z,-8.89
2024-01-11T00:53:10.312Z,-8.89
2024-01-11T00:53:41.662Z,-9.01
2024-01-11T00:54:14.461Z,-9.01
2024-01-11T00:54:45.738Z,-9.01
2024-01-11T00:55:18.924Z,-9.01
2024-01-11T00:55:49.644Z,-9.01
2024-01-11T00:56:22.552Z,-9.01
2024-01-11T00:56:53.705Z,-9.01
2024-01-11T00:57:26.809Z,-9.01
2024-01-11T00:57:57.673Z,-9.01
2024-01-11T00:58:30.440Z,-9.01
2024-01-11T00:59:01.920Z,-9.01
2024-01-11T00:59:34.665Z,-9.01
2024-01-11T01:00:07.556Z,-9.01
2024-01-11T01:00:38.438Z,-9.01
2024-01-11T01:01:09.611Z,-9.01
2024-01-11T01:01:42.487Z,-9.01
2024-01-11T01:02:13.614Z,-9.01
2024-01-11T01:02:29.797Z,-9.01
2024-01-11T01:03:01.742Z,-9.01
2024-01-11T01:03:33.629Z,-9.01
2024-01-11T01:04:06.359Z,-9.01
2024-01-11T01:04:37.735Z,-9.01
2024-01-11T01:05:10.754Z,-9.01
2024-01-11T01:05:41.722Z,-9.01
2024-01-11T01:06:14.607Z,-9.01
2024-01-11T01:06:45.746Z,-9.01
2024-01-11T01:07:18.392Z,-9.01
2024-01-11T01:07:49.699Z,-9.01
2024-01-11T01:08:22.708Z,-9.01
2024-01-11T01:08:53.550Z,-9.01
2024-01-11T01:09:26.616Z,-9.01
2024-01-11T01:09:57.663Z,-9.01
2024-01-11T01:10:30.898Z,-9.01
2024-01-11T01:11:01.749Z,-9.01
2024-01-11T01:11:34.583Z,-9.01
2024-01-11T01:12:05.757Z,-9.01
2024-01-11T01:12:38.785Z,-9.01
2024-01-11T01:13:09.610Z,-9.01
2024-01-11T01:13:42.626Z,-9.01
2024-01-11T01:14:13.827Z,-9.01
2024-01-11T01:14:46.226Z,-9.01
2024-01-11T01:15:19.073Z,-9.01
2024-01-11T01:15:50.729Z,-9.01
2024-01-11T01:16:21.596Z,-9.01
2024-01-11T01:16:57.330Z,-9.01
2024-01-11T01:17:25.840Z,-9.12
2024-01-11T01:17:59.137Z,-9.12
2024-01-11T01:18:29.680Z,-9.12
2024-01-11T01:19:02.825Z,-9.12
2024-01-11T01:19:33.797Z,-9.12
2024-01-11T01:20:06.850Z,-9.12
2024-01-11T01:20:37.841Z,-9.12
2024-01-11T01:21:10.632Z,-9.12
2024-01-11T01:21:41.509Z,-9.12
2024-01-11T01:22:14.578Z,-9.12
2024-01-11T01:22:45.640Z,-9.12
2024-01-11T01:23:18.789Z,-9.12
2024-01-11T01:23:49.640Z,-9.12
2024-01-11T01:24:22.458Z,-9.12
2024-01-11T01:24:53.746Z,-9.23
2024-01-11T01:25:27.629Z,-9.23
2024-01-11T01:25:57.709Z,-9.23
2024-01-11T01:26:30.490Z,-9.23
2024-01-11T01:27:01.617Z,-9.23
2024-01-11T01:27:34.685Z,-9.23
2024-01-11T01:28:05.661Z,-9.23
2024-01-11T01:28:41.512Z,-9.23
2024-01-11T01:29:09.627Z,-9.23
2024-01-11T01:29:42.581Z,-9.23
2024-01-11T01:30:14.999Z,-9.23
2024-01-11T01:30:50.792Z,-9.23
2024-01-11T01:31:17.636Z,-9.23
2024-01-11T01:31:49.671Z,-9.23
2024-01-11T01:32:21.811Z,-9.23
2024-01-11T01:32:53.747Z,-9.23
2024-01-11T01:33:26.591Z,-9.23
2024-01-11T01:33:57.914Z,-9.23
2024-01-11T01:34:30.752Z,-9.27
2024-01-11T01:35:02.413Z,-9.27
2024-01-11T01:35:34.826Z,-9.27
2024-01-11T01:36:05.795Z,-9.27
2024-01-11T01:36:38.572Z,-9.27
2024-01-11T01:37:09.631Z,-9.27
2024-01-11T01:37:44.604Z,-9.27
2024-01-11T01:38:13.616Z,-9.27
2024-01-11T01:38:46.322Z,-9.13
2024-01-11T01:39:17.712Z,-9.13
2024-01-11T01:39:50.595Z,-9.13
2024-01-11T01:40:22.028Z,-9.13
2024-01-11T01:40:54.633Z,-9.13
2024-01-11T01:41:25.729Z,-9.13
2024-01-11T01:41:58.339Z,-9.13
2024-01-11T01:42:29.666Z,-9.13
2024-01-11T01:43:02.836Z,-9.13
2024-01-11T01:43:33.804Z,-9.13
2024-01-11T01:44:09.406Z,-9.13
2024-01-11T01:44:37.861Z,-9.13
2024-01-11T01:45:11.936Z,-9.13
2024-01-11T01:45:41.777Z,-9.13
2024-01-11T01:46:14.411Z,-9.13
2024-01-11T01:46:45.710Z,-9.13
2024-01-11T01:47:18.936Z,-9.13
2024-01-11T01:47:49.743Z,-9.13
2024-01-11T01:48:38.016Z,-9.13
2024-01-11T01:49:09.741Z,-9.13
2024-01-11T01:49:41.780Z,-9.13
2024-01-11T01:50:14.142Z,-9.24
2024-01-11T01:50:45.789Z,-9.24
2024-01-11T01:51:17.766Z,-9.13
2024-01-11T01:51:49.645Z,-9.13
2024-01-11T01:52:22.671Z,-9.13
2024-01-11T01:52:53.799Z,-9.13
2024-01-11T01:53:26.601Z,-9.24
2024-01-11T01:53:57.671Z,-9.24
2024-01-11T01:54:30.444Z,-9.24
2024-01-11T01:55:02.385Z,-9.24
2024-01-11T01:55:35.583Z,-9.24
2024-01-11T01:56:05.762Z,-9.24
2024-01-11T01:56:38.950Z,-9.24
2024-01-11T01:57:09.765Z,-9.24
2024-01-11T01:57:42.750Z,-9.24
2024-01-11T01:58:13.618Z,-9.24
2024-01-11T01:58:46.391Z,-9.24
2024-01-11T01:59:17.671Z,-9.24
2024-01-11T01:59:50.511Z,-9.08
2024-01-11T02:00:23.808Z,-9.08
2024-01-11T02:00:55.043Z,-9.08
2024-01-11T02:01:25.824Z,-9.08
2024-01-11T02:01:58.510Z,-9.20
2024-01-11T02:02:29.789Z,-9.20
2024-01-11T02:03:02.920Z,-9.20
2024-01-11T02:03:33.736Z,-9.20
2024-01-11T02:04:06.432Z,-9.20
2024-01-11T02:04:37.787Z,-9.20
2024-01-11T02:05:10.924Z,-9.20
2024-01-11T02:05:41.790Z,-9.20
2024-01-11T02:06:14.584Z,-9.35
2024-01-11T02:06:45.639Z,-9.35
2024-01-11T02:07:18.373Z,-9.20
2024-01-11T02:07:49.636Z,-9.20
2024-01-11T02:08:22.597Z,-9.20
2024-01-11T02:08:53.599Z,-9.20
2024-01-11T02:09:26.590Z,-9.31
2024-01-11T02:09:57.777Z,-9.31
2024-01-11T02:10:30.757Z,-9.31
2024-01-11T02:11:01.736Z,-9.31
2024-01-11T02:11:34.592Z,-9.46
2024-01-11T02:12:05.806Z,-9.46
2024-01-11T02:12:38.510Z,-9.46
2024-01-11T02:13:10.930Z,-9.46
2024-01-11T02:13:42.700Z,-9.31
2024-01-11T02:14:13.629Z,-9.31
2024-01-11T02:14:46.469Z,-9.31
2024-01-11T02:15:18.971Z,-9.31
2024-01-11T02:15:50.670Z,-9.31
2024-01-11T02:16:21.616Z,-9.31
2024-01-11T02:16:54.688Z,-9.31
2024-01-11T02:17:25.810Z,-9.31
2024-01-11T02:17:58.531Z,-9.42
2024-01-11T02:18:29.792Z,-9.42
2024-01-11T02:19:02.618Z,-9.31
2024-01-11T02:19:33.618Z,-9.31
2024-01-11T02:20:06.934Z,-9.31
2024-01-11T02:20:37.803Z,-9.31
2024-01-11T02:21:10.726Z,-9.42
2024-01-11T02:21:41.706Z,-9.42
2024-01-11T02:21:57.885Z,-9.42
2024-01-11T02:22:29.739Z,-9.42
2024-01-11T02:23:01.748Z,-9.42
2024-01-11T02:23:33.921Z,-9.42
2024-01-11T02:24:05.901Z,-9.42
2024-01-11T02:24:37.679Z,-9.42
2024-01-11T02:25:10.048Z,-9.42
2024-01-11T02:25:41.819Z,-9.42
2024-01-11T02:26:13.678Z,-9.42
2024-01-11T02:26:46.486Z,-9.42
2024-01-11T02:27:17.744Z,-9.42
2024-01-11T02:27:50.716Z,-9.42
2024-01-11T02:28:21.661Z,-9.42
2024-01-11T02:28:54.731Z,-9.42
2024-01-11T02:29:25.885Z,-9.42
2024-01-11T02:29:58.511Z,-9.46
2024-01-11T02:30:30.965Z,-9.46
2024-01-11T02:31:02.654Z,-9.46
2024-01-11T02:31:33.589Z,-9.46
2024-01-11T02:32:06.874Z,-9.46
2024-01-11T02:32:37.869Z,-9.46
2024-01-11T02:33:10.903Z,-9.46
2024-01-11T02:33:41.794Z,-9.46
2024-01-11T02:33:57.999Z,-9.46
2024-01-11T02:34:29.765Z,-9.46
2024-01-11T02:35:02.244Z,-9.46
2024-01-11T02:35:33.785Z,-9.46
2024-01-11T02:36:05.829Z,-9.46
2024-01-11T02:36:37.650Z,-9.46
2024-01-11T02:37:09.758Z,-9.31
2024-01-11T02:37:41.741Z,-9.31
2024-01-11T02:38:13.629Z,-9.31
2024-01-11T02:38:30.836Z,-9.31
2024-01-11T02:39:01.834Z,-9.31
2024-01-11T02:39:35.402Z,-9.31
2024-01-11T02:40:05.998Z,-9.31
2024-01-11T02:40:38.618Z,-9.31
2024-01-11T02:41:09.737Z,-9.31
2024-01-11T02:41:42.481Z,-9.31
2024-01-11T02:42:13.722Z,-9.31
2024-01-11T02:42:46.839Z,-9.31
2024-01-11T02:43:17.635Z,-9.31
2024-01-11T02:43:50.858Z,-9.42
2024-01-11T02:44:21.847Z,-9.42
2024-01-11T02:44:54.440Z,-9.42
2024-01-11T02:45:26.977Z,-9.42
2024-01-11T02:45:58.770Z,-9.42
2024-01-11T02:46:29.621Z,-9.42
2024-01-11T02:47:02.636Z,-9.42
2024-01-11T02:47:34.066Z,-9.42
2024-01-11T02:48:06.862Z,-9.42
2024-01-11T02:48:37.839Z,-9.42
2024-01-11T02:49:10.645Z,-9.54
2024-01-11T02:49:41.755Z,-9.54
2024-01-11T02:50:14.776Z,-9.54
2024-01-11T02:50:45.714Z,-9.54
2024-01-11T02:51:18.897Z,-9.54
2024-01-11T02:51:49.803Z,-9.54
2024-01-11T02:52:22.599Z,-9.54
2024-01-11T02:52:53.735Z,-9.54
2024-01-11T02:53:26.842Z,-9.54
2024-01-11T02:53:57.781Z,-9.54
2024-01-11T02:54:30.568Z,-9.54
2024-01-11T02:55:02.285Z,-9.54
2024-01-11T02:55:35.467Z,-9.54
2024-01-11T02:56:05.738Z,-9.54
2024-01-11T02:56:38.560Z,-9.54
2024-01-11T02:57:09.776Z,-9.54
2024-01-11T02:57:42.671Z,-9.54
2024-01-11T02:58:13.728Z,-9.54
2024-01-11T02:58:46.476Z,-9.64
2024-01-11T02:59:17.588Z,-9.64
2024-01-11T02:59:50.498Z,-9.64
2024-01-11T03:00:23.108Z,-9.64
2024-01-11T03:00:54.774Z,-9.64
2024-01-11T03:01:25.646Z,-9.64
2024-01-11T03:01:58.550Z,-9.64
2024-01-11T03:02:29.860Z,-9.64
2024-01-11T03:03:02.729Z,-9.64
2024-01-11T03:03:33.779Z,-9.64
2024-01-11T03:04:06.665Z,-9.64
2024-01-11T03:04:37.785Z,-9.64
2024-01-11T03:05:10.723Z,-9.64
2024-01-11T03:05:41.895Z,-9.64
2024-01-11T03:06:14.646Z,-9.64
2024-01-11T03:06:45.637Z,-9.64
2024-01-11T03:07:18.608Z,-9.64
2024-01-11T03:07:49.722Z,-9.64
2024-01-11T03:08:22.833Z,-9.64
2024-01-11T03:08:53.614Z,-9.64
2024-01-11T03:09:26.640Z,-9.64
2024-01-11T03:09:57.880Z,-9.64
2024-01-11T03:10:30.815Z,-9.64
2024-01-11T03:11:01.728Z,-9.64
2024-01-11T03:11:34.956Z,-9.75
2024-01-11T03:12:05.758Z,-9.75
2024-01-11T03:12:38.629Z,-9.50
2024-01-11T03:13:09.721Z,-9.50
2024-01-11T03:13:42.705Z,-9.50
2024-01-11T03:14:13.626Z,-9.50
2024-01-11T03:14:46.477Z,-9.61
2024-01-11T03:15:19.117Z,-9.61
2024-01-11T03:15:50.940Z,-9.75
2024-01-11T03:16:21.764Z,-9.75
2024-01-11T03:16:54.668Z,-9.75
2024-01-11T03:17:25.944Z,-9.75
2024-01-11T03:17:58.962Z,-9.75
2024-01-11T03:18:29.689Z,-9.75
2024-01-11T03:19:02.793Z,-9.75
2024-01-11T03:19:33.730Z,-9.75
2024-01-11T03:20:07.031Z,-9.75
2024-01-11T03:20:37.788Z,-9.75
2024-01-11T03:21:10.775Z,-9.75
2024-01-11T03:21:41.647Z,-9.75
2024-01-11T03:21:57.856Z,-9.80
2024-01-11T03:22:29.660Z,-9.80
2024-01-11T03:23:01.714Z,-9.80
2024-01-11T03:23:33.916Z,-9.80
2024-01-11T03:24:05.595Z,-9.66
2024-01-11T03:24:40.204Z,-9.66
2024-01-11T03:25:10.171Z,-9.80
2024-01-11T03:25:42.587Z,-9.80
2024-01-11T03:26:13.831Z,-9.66
2024-01-11T03:26:46.642Z,-9.66
2024-01-11T03:27:17.800Z,-9.66
2024-01-11T03:27:50.713Z,-9.66
2024-01-11T03:28:21.729Z,-9.66
2024-01-11T03:28:54.763Z,-9.66
2024-01-11T03:29:25.727Z,-9.80
2024-01-11T03:29:58.715Z,-9.80
2024-01-11T03:30:31.148Z,-9.80
2024-01-11T03:31:02.819Z,-9.80
2024-01-11T03:31:33.720Z,-9.91
2024-01-11T03:32:06.806Z,-9.91
2024-01-11T03:32:37.988Z,-9.91
2024-01-11T03:33:10.720Z,-9.91
2024-01-11T03:33:41.764Z,-9.91
2024-01-11T03:34:14.644Z,-9.91
2024-01-11T03:34:45.919Z,-9.77
2024-01-11T03:35:20.837Z,-9.77
2024-01-11T03:35:49.791Z,-9.77
2024-01-11T03:36:22.907Z,-9.77
2024-01-11T03:36:53.668Z,-9.77
2024-01-11T03:37:26.828Z,-9.77
2024-01-11T03:37:57.814Z,-9.77
2024-01-11T03:38:30.863Z,-9.77
2024-01-11T03:39:01.796Z,-9.77
2024-01-11T03:39:34.615Z,-9.77
2024-01-11T03:40:06.062Z,-9.77
2024-01-11T03:40:38.662Z,-9.77
2024-01-11T03:41:09.724Z,-9.77
2024-01-11T03:41:42.605Z,-9.77
2024-01-11T03:42:13.624Z,-9.88
2024-01-11T03:42:46.573Z,-9.88
2024-01-11T03:43:17.743Z,-9.88
2024-01-11T03:43:51.011Z,-9.88
2024-01-11T03:44:21.650Z,-9.88
2024-01-11T03:44:54.661Z,-9.88
2024-01-11T03:45:27.126Z,-9.88
2024-01-11T03:46:08.311Z,-9.88
2024-01-11T03:46:29.648Z,-9.88
2024-01-11T03:47:01.747Z,-9.88
2024-01-11T03:47:34.919Z,-9.88
2024-01-11T03:48:05.832Z,-9.88
2024-01-11T03:48:39.561Z,-9.88
2024-01-11T03:51:49.831Z,-9.88
2024-01-11T03:52:22.662Z,-9.88
2024-01-11T03:52:53.729Z,-9.88
2024-01-11T03:53:26.590Z,-9.88
2024-01-11T03:53:57.747Z,-9.99
2024-01-11T03:54:45.854Z,-9.99
2024-01-11T03:55:18.442Z,-9.88
2024-01-11T03:55:49.723Z,-9.88
2024-01-11T03:56:21.728Z,-9.99
2024-01-11T03:56:53.713Z,-9.99
2024-01-11T03:57:25.779Z,-9.99
2024-01-11T03:57:57.578Z,-9.99
2024-01-11T03:58:32.498Z,-9.99
2024-01-11T03:59:01.895Z,-9.99
2024-01-11T03:59:34.750Z,-9.99
2024-01-11T04:00:10.801Z,-9.99
2024-01-11T04:00:39.815Z,-9.85
2024-01-11T04:01:09.851Z,-9.85
2024-01-11T04:01:42.433Z,-9.85
2024-01-11T04:02:13.791Z,-9.85
2024-01-11T04:02:46.684Z,-9.85
2024-01-11T04:03:17.880Z,-9.85
2024-01-11T04:03:50.649Z,-9.85
2024-01-11T04:04:21.797Z,-9.85
2024-01-11T04:04:54.618Z,-9.85
2024-01-11T04:05:26.119Z,-9.85
2024-01-11T04:05:58.741Z,-9.85
2024-01-11T04:06:29.828Z,-9.85
2024-01-11T04:07:02.603Z,-9.85
2024-01-11T04:07:33.705Z,-9.85
2024-01-11T04:08:06.637Z,-9.96
2024-01-11T04:08:37.984Z,-9.96
2024-01-11T04:09:10.558Z,-9.96
2024-01-11T04:09:41.706Z,-9.96
2024-01-11T04:10:14.984Z,-9.96
2024-01-11T04:10:45.580Z,-9.96
2024-01-11T04:11:19.398Z,-9.96
2024-01-11T04:11:49.724Z,-9.96
2024-01-11T04:12:22.816Z,-9.96
2024-01-11T04:12:53.677Z,-9.96
2024-01-11T04:13:32.034Z,-9.96
2024-01-11T04:13:57.921Z,-9.96
2024-01-11T04:14:29.651Z,-9.96
2024-01-11T04:15:04.481Z,-9.96
2024-01-11T04:15:33.858Z,-9.96
2024-01-11T04:16:06.860Z,-9.96
2024-01-11T04:16:37.661Z,-9.96
2024-01-11T04:17:10.818Z,-9.96
2024-01-11T04:17:42.074Z,-9.96
2024-01-11T04:18:14.659Z,-9.96
2024-01-11T04:18:45.720Z,-9.96
2024-01-11T04:19:22.476Z,-9.96
2024-01-11T04:19:49.854Z,-9.96
2024-01-11T04:20:23.044Z,-9.96
2024-01-11T04:20:53.796Z,-9.96
2024-01-11T04:21:26.735Z,-9.96
2024-01-11T04:21:57.603Z,-9.96
2024-01-11T04:22:30.699Z,-9.96
2024-01-11T04:23:01.822Z,-9.96
2024-01-11T04:23:34.826Z,-9.96
2024-01-11T04:24:05.686Z,-9.96
2024-01-11T04:24:38.594Z,-9.96
2024-01-11T04:25:10.046Z,-9.96
2024-01-11T04:25:42.524Z,-9.96
2024-01-11T04:26:13.724Z,-9.82
2024-01-11T04:26:46.575Z,-9.82
2024-01-11T04:27:17.799Z,-9.82
2024-01-11T04:27:50.702Z,-9.82
2024-01-11T04:28:21.762Z,-9.82
2024-01-11T04:28:57.880Z,-9.82
2024-01-11T04:29:25.691Z,-9.86
2024-01-11T04:29:58.613Z,-9.86
2024-01-11T04:30:31.220Z,-9.86
2024-01-11T04:31:02.655Z,-9.86
2024-01-11T04:31:33.707Z,-10.01
2024-01-11T04:32:06.809Z,-10.01
2024-01-11T04:32:38.000Z,-10.01
2024-01-11T04:33:10.482Z,-10.01
2024-01-11T04:33:41.853Z,-10.01
2024-01-11T04:34:20.521Z,-10.01
2024-01-11T04:34:45.827Z,-10.01
2024-01-11T04:35:18.344Z,-10.01
2024-01-11T04:35:49.764Z,-10.01
2024-01-11T04:36:21.991Z,-10.01
2024-01-11T04:36:53.683Z,-10.01
2024-01-11T04:37:25.705Z,-10.01
2024-01-11T04:37:57.899Z,-10.01
2024-01-11T04:38:29.691Z,-10.01
2024-01-11T04:39:02.673Z,-10.11
2024-01-11T04:39:33.729Z,-10.11
2024-01-11T04:40:07.820Z,-10.01
2024-01-11T04:40:37.746Z,-10.01
2024-01-11T04:41:10.675Z,-10.11
2024-01-11T04:41:41.826Z,-10.11
2024-01-11T04:41:57.893Z,-10.11
2024-01-11T04:42:29.877Z,-10.11
2024-01-11T04:43:01.715Z,-10.11
2024-01-11T04:43:35.567Z,-10.11
2024-01-11T04:44:05.837Z,-10.11
2024-01-11T04:44:44.157Z,-10.11
2024-01-11T04:45:11.111Z,-10.11
2024-01-11T04:45:41.957Z,-10.11
2024-01-11T04:46:13.573Z,-10.11
2024-01-11T04:46:45.641Z,-10.11
2024-01-11T04:47:18.450Z,-10.11
2024-01-11T04:47:49.860Z,-10.11
2024-01-11T04:48:22.729Z,-10.11
2024-01-11T04:48:53.899Z,-10.11
2024-01-11T04:49:26.647Z,-9.97
2024-01-11T04:49:57.843Z,-9.97
2024-01-11T04:50:30.828Z,-9.97
2024-01-11T04:51:01.808Z,-9.97
2024-01-11T04:51:34.500Z,-9.97
2024-01-11T04:52:05.798Z,-9.97
2024-01-11T04:52:44.007Z,-9.97
2024-01-11T04:53:09.754Z,-9.97
2024-01-11T04:53:41.856Z,-9.97
2024-01-11T04:54:14.410Z,-9.97
2024-01-11T04:54:45.699Z,-9.97
2024-01-11T04:55:18.965Z,-9.97
2024-01-11T04:55:49.656Z,-9.97
2024-01-11T04:56:23.037Z,-9.97
2024-01-11T04:56:53.865Z,-9.97
2024-01-11T04:57:26.862Z,-9.97
2024-01-11T04:57:57.724Z,-9.97
2024-01-11T04:58:31.614Z,-9.97
2024-01-11T04:59:01.910Z,-9.97
2024-01-11T04:59:34.605Z,-9.97
2024-01-11T05:00:07.641Z,-9.97
2024-01-11T05:00:39.019Z,-9.97
2024-01-11T05:01:09.731Z,-10.09
2024-01-11T05:01:42.607Z,-10.09
2024-01-11T05:02:13.880Z,-10.09
2024-01-11T05:02:46.924Z,-10.09
2024-01-11T05:03:17.758Z,-10.09
2024-01-11T05:03:50.559Z,-10.09
2024-01-11T05:04:21.792Z,-10.09
2024-01-11T05:04:54.558Z,-10.09
2024-01-11T05:05:26.441Z,-10.09
2024-01-11T05:05:58.713Z,-10.09
2024-01-11T05:06:29.886Z,-10.09
2024-01-11T05:07:02.681Z,-10.09
2024-01-11T05:07:33.679Z,-10.09
2024-01-11T05:08:06.866Z,-10.09
2024-01-11T05:08:37.682Z,-10.09
2024-01-11T05:09:10.626Z,-10.09
2024-01-11T05:09:41.773Z,-10.09
2024-01-11T05:10:15.081Z,-10.09
2024-01-11T05:10:45.629Z,-10.09
2024-01-11T05:11:18.585Z,-10.09
2024-01-11T05:11:49.825Z,-10.09
2024-01-11T05:12:22.562Z,-10.09
2024-01-11T05:12:53.786Z,-10.09
2024-01-11T05:13:26.693Z,-10.09
2024-01-11T05:13:57.912Z,-10.09
2024-01-11T05:14:30.482Z,-10.09
2024-01-11T05:15:03.341Z,-10.09
2024-01-11T05:15:34.800Z,-10.09
2024-01-11T05:16:05.709Z,-10.09
2024-01-11T05:16:38.497Z,-10.09
2024-01-11T05:17:09.826Z,-10.09
2024-01-11T05:17:42.921Z,-10.09
2024-01-11T05:18:13.721Z,-10.09
2024-01-11T05:18:46.688Z,-10.09
2024-01-11T05:19:17.909Z,-10.09
2024-01-11T05:19:50.300Z,-10.09
2024-01-11T05:20:22.122Z,-10.09
2024-01-11T05:20:54.573Z,-10.09
2024-01-11T05:21:25.909Z,-10.09
2024-01-11T05:21:58.683Z,-10.09
2024-01-11T05:22:29.822Z,-10.09
2024-01-11T05:23:02.834Z,-10.09
2024-01-11T05:23:33.823Z,-10.09
2024-01-11T05:24:12.626Z,-10.09
2024-01-11T05:24:37.740Z,-10.09
2024-01-11T05:25:09.911Z,-10.09
2024-01-11T05:25:42.811Z,-10.09
2024-01-11T05:26:13.774Z,-10.09
2024-01-11T05:26:46.871Z,-10.09
2024-01-11T05:27:17.741Z,-10.09
2024-01-11T05:27:50.973Z,-10.09
2024-01-11T05:28:21.841Z,-10.09
2024-01-11T05:28:54.696Z,-10.09
2024-01-11T05:29:25.960Z,-10.09
2024-01-11T05:29:59.671Z,-10.09
2024-01-11T05:30:31.542Z,-10.09
2024-01-11T05:31:02.785Z,-10.09
2024-01-11T05:31:33.923Z,-10.09
2024-01-11T05:32:06.855Z,-10.09
2024-01-11T05:32:38.104Z,-10.09
2024-01-11T05:33:10.729Z,-10.09
2024-01-11T05:33:41.998Z,-10.09
2024-01-11T05:34:14.854Z,-10.09
2024-01-11T05:34:45.637Z,-10.09
2024-01-11T05:35:18.833Z,-10.09
2024-01-11T05:35:49.783Z,-10.09
2024-01-11T05:36:22.650Z,-9.95
2024-01-11T05:36:53.674Z,-9.95
2024-01-11T05:37:26.718Z,-9.95
2024-01-11T05:37:57.795Z,-9.95
2024-01-11T05:38:30.780Z,-9.95
2024-01-11T05:39:01.783Z,-9.95
2024-01-11T05:39:34.591Z,-9.95
2024-01-11T05:40:05.904Z,-9.95
2024-01-11T05:40:38.495Z,-9.95
2024-01-11T05:41:10.088Z,-9.95
2024-01-11T05:41:42.659Z,-10.09
2024-01-11T05:42:13.622Z,-10.09
2024-01-11T05:42:46.885Z,-10.09
2024-01-11T05:43:17.690Z,-10.09
2024-01-11T05:43:50.705Z,-10.09
2024-01-11T05:44:21.822Z,-10.09
2024-01-11T05:44:54.573Z,-9.95
2024-01-11T05:45:35.831Z,-9.95
2024-01-11T05:45:58.848Z,-9.95
2024-01-11T05:46:32.390Z,-9.95
2024-01-11T05:47:02.602Z,-10.06
2024-01-11T05:47:33.793Z,-10.06
2024-01-11T05:48:06.812Z,-9.95
2024-01-11T05:48:37.949Z,-9.95
2024-01-11T05:49:10.830Z,-9.95
2024-01-11T05:49:41.686Z,-9.95
2024-01-11T05:50:14.968Z,-9.95
2024-01-11T05:50:45.821Z,-9.95
2024-01-11T05:51:18.506Z,-9.95
2024-01-11T05:51:49.647Z,-9.95
2024-01-11T05:52:22.841Z,-9.82
2024-01-11T05:52:53.829Z,-9.82
2024-01-11T05:53:26.585Z,-9.70
2024-01-11T05:53:57.766Z,-9.70
2024-01-11T05:54:30.847Z,-9.70
2024-01-11T05:55:02.392Z,-9.70
2024-01-11T05:55:34.632Z,-9.70
2024-01-11T05:56:05.772Z,-9.70
2024-01-11T05:56:38.742Z,-9.70
2024-01-11T05:57:09.709Z,-9.70
2024-01-11T05:57:48.263Z,-9.70
2024-01-11T05:58:13.804Z,-9.70
2024-01-11T05:58:45.747Z,-9.59
2024-01-11T05:59:18.738Z,-9.59
2024-01-11T05:59:49.770Z,-9.59
2024-01-11T06:00:25.073Z,-9.59
2024-01-11T06:00:53.856Z,-9.59
2024-01-11T06:01:26.634Z,-9.59
2024-01-11T06:01:57.909Z,-9.59
2024-01-11T06:02:30.798Z,-9.59
2024-01-11T06:03:01.772Z,-9.54
2024-01-11T06:03:34.585Z,-9.54
2024-01-11T06:04:05.817Z,-9.59
2024-01-11T06:04:38.492Z,-9.59
2024-01-11T06:05:10.060Z,-9.54
2024-01-11T06:05:42.922Z,-9.54
2024-01-11T06:06:13.696Z,-9.54
2024-01-11T06:06:52.158Z,-9.54
2024-01-11T06:07:17.810Z,-9.54
2024-01-11T06:07:49.892Z,-9.54
2024-01-11T06:08:21.756Z,-9.54
2024-01-11T06:08:53.812Z,-9.54
2024-01-11T06:09:25.848Z,-9.54
2024-01-11T06:09:57.668Z,-9.54
2024-01-11T06:10:30.903Z,-9.67
2024-01-11T06:11:02.054Z,-9.67
2024-01-11T06:11:34.679Z,-9.67
2024-01-11T06:12:05.844Z,-9.67
2024-01-11T06:12:38.764Z,-9.67
2024-01-11T06:13:09.822Z,-9.67
2024-01-11T06:13:42.338Z,-9.67
2024-01-11T06:14:13.807Z,-9.67
2024-01-11T06:14:49.620Z,-9.67
2024-01-11T06:15:18.889Z,-9.67
2024-01-11T06:15:50.741Z,-9.67
2024-01-11T06:16:21.868Z,-9.67
2024-01-11T06:16:54.354Z,-9.67
2024-01-11T06:17:25.778Z,-9.67
2024-01-11T06:17:58.746Z,-9.67
2024-01-11T06:18:30.010Z,-9.67
2024-01-11T06:19:02.626Z,-9.67
2024-01-11T06:19:33.853Z,-9.67
2024-01-11T06:20:07.067Z,-9.67
2024-01-11T06:20:37.731Z,-9.67
2024-01-11T06:21:10.469Z,-9.72
2024-01-11T06:21:41.774Z,-9.72
2024-01-11T06:22:14.727Z,-9.67
2024-01-11T06:22:46.403Z,-9.67
2024-01-11T06:23:18.708Z,-9.72
2024-01-11T06:23:49.858Z,-9.72
2024-01-11T06:24:22.713Z,-9.82
2024-01-11T06:24:53.752Z,-9.82
2024-01-11T06:25:26.999Z,-9.86
2024-01-11T06:25:57.889Z,-9.86
2024-01-11T06:26:30.559Z,-9.86
2024-01-11T06:27:01.770Z,-9.86
2024-01-11T06:27:34.540Z,-9.86
2024-01-11T06:28:05.873Z,-9.86
2024-01-11T06:28:38.689Z,-9.86
2024-01-11T06:29:09.820Z,-9.86
2024-01-11T06:29:42.899Z,-9.86
2024-01-11T06:30:14.964Z,-9.86
2024-01-11T06:30:46.860Z,-9.86
2024-01-11T06:31:17.819Z,-9.86
2024-01-11T06:31:50.786Z,-9.86
2024-01-11T06:32:21.737Z,-9.86
2024-01-11T06:32:54.791Z,-9.97
2024-01-11T06:33:25.831Z,-9.97
2024-01-11T06:33:58.578Z,-9.97
2024-01-11T06:34:29.788Z,-9.97
2024-01-11T06:35:03.499Z,-9.97
2024-01-11T06:35:33.692Z,-9.97
2024-01-11T06:36:06.455Z,-9.97
2024-01-11T06:36:37.763Z,-9.97
2024-01-11T06:37:12.138Z,-9.97
2024-01-11T06:37:41.729Z,-9.97
2024-01-11T06:38:14.830Z,-9.97
2024-01-11T06:38:45.930Z,-9.97
2024-01-11T06:39:18.785Z,-9.97
2024-01-11T06:39:49.796Z,-9.97
2024-01-11T06:40:22.993Z,-10.09
2024-01-11T06:40:53.830Z,-10.09
2024-01-11T06:41:27.548Z,-10.09
2024-01-11T06:41:57.784Z,-10.09
2024-01-11T06:42:30.905Z,-10.09
2024-01-11T06:43:01.834Z,-10.09
2024-01-11T06:43:34.589Z,-10.09
2024-01-11T06:44:05.801Z,-10.09
2024-01-11T06:44:38.726Z,-10.09
2024-01-11T06:45:11.019Z,-10.09
2024-01-11T06:45:42.824Z,-10.20
2024-01-11T06:46:13.841Z,-10.20
2024-01-11T06:46:47.398Z,-10.20
2024-01-11T06:47:17.926Z,-10.20
2024-01-11T06:47:50.858Z,-10.20
2024-01-11T06:48:22.245Z,-10.20
2024-01-11T06:48:54.498Z,-10.20
2024-01-11T06:49:25.723Z,-10.20
2024-01-11T06:49:58.712Z,-10.20
2024-01-11T06:50:30.217Z,-10.20
2024-01-11T06:51:03.064Z,-10.20